createdAt,value
2022-09-23T00:01:03.130Z,43.90
2022-09-23T00:06:08.508Z,44.40
2022-09-23T00:11:13.746Z,44.20
2022-09-23T00:16:24.269Z,44.20
2022-09-23T00:21:27.884Z,44.40
2022-09-23T00:26:31.162Z,44.10
2022-09-23T00:31:35.683Z,44.20
2022-09-23T00:36:38.881Z,44.40
2022-09-23T00:41:42.072Z,44.30
2022-09-23T00:46:46.681Z,44.40
2022-09-23T00:51:56.151Z,44.60
2022-09-23T00:57:00.646Z,44.80
2022-09-23T01:02:07.060Z,45.30
2022-09-23T01:07:10.333Z,44.80
2022-09-23T01:12:28.206Z,44.70
2022-09-23T01:17:40.714Z,45.00
2022-09-23T01:22:49.969Z,45.10
2022-09-23T01:28:08.701Z,44.90
2022-09-23T01:33:20.695Z,45.30
2022-09-23T01:38:33.586Z,45.20
2022-09-23T01:43:43.185Z,45.20
2022-09-23T01:48:53.676Z,45.20
2022-09-23T01:54:04.595Z,45.40
2022-09-23T01:59:13.095Z,45.30
2022-09-23T02:04:22.411Z,45.40
2022-09-23T02:09:31.440Z,45.50
2022-09-23T02:14:40.032Z,45.40
2022-09-23T02:19:47.967Z,45.40
2022-09-23T02:24:51.281Z,45.60
2022-09-23T02:30:01.264Z,45.40
2022-09-23T02:35:14.331Z,45.60
2022-09-23T02:40:23.870Z,45.80
2022-09-23T02:45:27.692Z,45.70
2022-09-23T02:50:33.504Z,45.40
2022-09-23T02:55:36.904Z,45.60
2022-09-23T03:00:50.240Z,45.40
2022-09-23T03:05:59.103Z,45.70
2022-09-23T03:11:07.603Z,45.70
2022-09-23T03:16:18.177Z,45.70
2022-09-23T03:21:28.908Z,45.70
2022-09-23T03:26:36.168Z,45.80
2022-09-23T03:31:42.560Z,45.70
2022-09-23T03:36:54.025Z,45.80
2022-09-23T03:42:00.120Z,45.90
2022-09-23T03:47:03.826Z,45.70
2022-09-23T03:52:08.711Z,45.60
2022-09-23T03:57:12.884Z,45.80
2022-09-23T04:02:16.613Z,45.70
2022-09-23T04:07:21.294Z,45.70
2022-09-23T04:12:24.477Z,45.80
2022-09-23T04:17:27.988Z,45.80
2022-09-23T04:22:34.175Z,45.80
2022-09-23T04:27:38.960Z,45.90
2022-09-23T04:32:42.158Z,45.80
2022-09-23T04:37:48.999Z,45.70
2022-09-23T04:42:52.572Z,45.90
2022-09-23T04:47:58.489Z,45.80
2022-09-23T04:53:03.203Z,45.80
2022-09-23T04:58:06.671Z,45.80
2022-09-23T05:03:09.821Z,45.80
2022-09-23T05:08:14.320Z,45.80
2022-09-23T05:13:17.596Z,46.00
2022-09-23T05:18:20.961Z,45.90
2022-09-23T05:23:25.798Z,46.00
2022-09-23T05:28:30.019Z,46.10
2022-09-23T05:33:33.521Z,46.10
2022-09-23T05:38:38.723Z,46.10
2022-09-23T05:43:42.258Z,46.20
2022-09-23T05:48:47.291Z,46.30
2022-09-23T05:53:52.982Z,46.40
2022-09-23T05:58:58.029Z,46.60
2022-09-23T06:04:02.623Z,46.60
2022-09-23T06:09:10.019Z,46.70
2022-09-23T06:14:15.060Z,47.00
2022-09-23T06:19:18.631Z,46.90
2022-09-23T06:24:28.571Z,46.90
2022-09-23T06:29:34.080Z,47.10
2022-09-23T06:34:48.105Z,47.00
2022-09-23T06:39:55.259Z,47.10
2022-09-23T06:45:00.202Z,47.20
2022-09-23T06:50:03.750Z,47.10
2022-09-23T06:55:10.198Z,47.10
2022-09-23T07:00:15.216Z,47.30
2022-09-23T07:05:18.931Z,47.30
2022-09-23T07:10:23.543Z,47.30
2022-09-23T07:15:26.814Z,47.60
2022-09-23T07:20:30.028Z,47.60
2022-09-23T07:25:34.991Z,47.60
2022-09-23T07:30:40.322Z,47.80
2022-09-23T07:35:44.688Z,47.80
2022-09-23T07:40:49.648Z,47.70
2022-09-23T07:45:55.605Z,47.80
2022-09-23T07:51:00.816Z,47.80
2022-09-23T07:56:07.417Z,47.70
2022-09-23T08:01:12.536Z,47.70
2022-09-23T08:06:15.936Z,47.50
2022-09-23T08:11:20.925Z,47.50
2022-09-23T08:16:24.657Z,47.20
2022-09-23T08:21:28.131Z,47.10
2022-09-23T08:26:34.365Z,47.00
2022-09-23T08:31:37.804Z,47.00
2022-09-23T08:36:41.401Z,46.80
2022-09-23T08:41:58.512Z,47.30
2022-09-23T08:47:12.107Z,46.30
2022-09-23T08:52:21.431Z,46.00
2022-09-23T08:57:36.067Z,46.00
2022-09-23T09:02:39.279Z,46.20
2022-09-23T09:07:43.273Z,46.00
2022-09-23T09:12:50.879Z,45.70
2022-09-23T09:18:01.319Z,45.40
2022-09-23T09:23:14.791Z,44.80
2022-09-23T09:28:24.695Z,44.80
2022-09-23T09:33:32.365Z,44.60
2022-09-23T09:38:36.141Z,44.60
2022-09-23T09:43:44.196Z,44.60
2022-09-23T09:48:53.765Z,45.80
2022-09-23T09:54:16.294Z,44.30
2022-09-23T09:59:26.670Z,44.30
2022-09-23T10:04:36.104Z,43.20
2022-09-23T10:09:41.240Z,42.70
2022-09-23T10:14:47.136Z,42.80
2022-09-23T10:20:00.403Z,42.30
2022-09-23T10:25:08.608Z,41.70
2022-09-23T10:30:23.157Z,40.90
2022-09-23T10:35:28.283Z,39.30
2022-09-23T10:40:51.093Z,40.60
2022-09-23T10:46:20.976Z,40.20
2022-09-23T10:51:33.367Z,38.60
2022-09-23T10:56:41.000Z,38.10
2022-09-23T11:01:53.069Z,38.40
2022-09-23T11:07:14.399Z,36.20
2022-09-23T11:12:31.310Z,35.80
2022-09-23T11:18:05.683Z,36.10
2022-09-23T11:23:33.438Z,35.00
2022-09-23T11:29:06.345Z,35.00
2022-09-23T11:34:28.466Z,34.40
2022-09-23T11:39:39.071Z,33.60
2022-09-23T11:44:48.542Z,34.00
2022-09-23T11:49:57.309Z,34.10
2022-09-23T11:55:18.996Z,33.20
2022-09-23T12:00:26.660Z,33.30
2022-09-23T12:05:35.768Z,33.60
2022-09-23T12:10:57.601Z,32.50
2022-09-23T12:16:26.160Z,32.50
2022-09-23T12:21:50.587Z,31.70
2022-09-23T12:26:59.066Z,31.70
2022-09-23T12:32:10.215Z,32.20
2022-09-23T12:37:15.063Z,32.30
2022-09-23T12:42:21.686Z,31.70
2022-09-23T12:47:41.221Z,31.40
2022-09-23T12:52:45.818Z,30.00
2022-09-23T12:57:49.354Z,31.10
2022-09-23T13:03:15.911Z,31.10
2022-09-23T13:08:24.759Z,29.60
2022-09-23T13:13:31.776Z,30.00
2022-09-23T13:18:59.684Z,30.20
2022-09-23T13:24:21.682Z,29.20
2022-09-23T13:29:28.403Z,29.10
2022-09-23T13:34:34.824Z,29.40
2022-09-23T13:39:39.437Z,29.40
2022-09-23T13:44:42.687Z,29.30
2022-09-23T13:49:48.082Z,29.50
2022-09-23T13:54:53.325Z,29.50
2022-09-23T14:00:01.674Z,29.40
2022-09-23T14:05:12.534Z,29.10
2022-09-23T14:10:21.002Z,29.10
2022-09-23T14:15:24.492Z,29.30
2022-09-23T14:20:27.811Z,29.70
2022-09-23T14:25:32.705Z,29.80
2022-09-23T14:30:38.506Z,29.80
2022-09-23T14:35:44.751Z,30.00
2022-09-23T14:41:15.553Z,30.00
2022-09-23T14:46:20.992Z,29.70
2022-09-23T14:51:36.368Z,30.10
2022-09-23T14:56:44.832Z,30.00
2022-09-23T15:01:48.041Z,30.00
2022-09-23T15:06:54.325Z,30.50
2022-09-23T15:12:06.249Z,31.20
2022-09-23T15:17:19.356Z,30.10
2022-09-23T15:22:23.159Z,30.20
2022-09-23T15:27:32.554Z,30.80
2022-09-23T15:32:35.778Z,30.40
2022-09-23T15:37:39.357Z,31.00
2022-09-23T15:42:51.629Z,30.90
2022-09-23T15:47:55.840Z,30.70
2022-09-23T15:52:59.570Z,31.00
2022-09-23T15:58:04.537Z,31.00
2022-09-23T16:03:07.744Z,31.00
2022-09-23T16:08:11.887Z,31.20
2022-09-23T16:13:16.789Z,31.30
2022-09-23T16:18:20.304Z,31.20
2022-09-23T16:23:34.620Z,31.40
2022-09-23T16:28:39.361Z,31.40
2022-09-23T16:33:42.602Z,31.50
2022-09-23T16:38:47.385Z,31.70
2022-09-23T16:43:52.354Z,31.80
2022-09-23T16:48:56.274Z,31.80
2022-09-23T16:54:00.521Z,32.00
2022-09-23T16:59:05.498Z,32.10
2022-09-23T17:04:10.721Z,32.10
2022-09-23T17:09:14.057Z,32.20
2022-09-23T17:14:19.153Z,33.00
2022-09-23T17:19:22.501Z,32.30
2022-09-23T17:24:25.673Z,32.40
2022-09-23T17:29:30.666Z,32.40
2022-09-23T17:34:34.990Z,32.40
2022-09-23T17:39:38.233Z,32.50
2022-09-23T17:44:42.836Z,32.50
2022-09-23T17:49:47.662Z,32.50
2022-09-23T17:54:50.921Z,32.70
2022-09-23T17:59:56.181Z,32.70
2022-09-23T18:04:59.448Z,32.80
2022-09-23T18:10:02.757Z,32.90
2022-09-23T18:15:07.917Z,32.90
2022-09-23T18:20:12.182Z,33.00
2022-09-23T18:25:35.429Z,33.10
2022-09-23T18:30:40.209Z,33.10
2022-09-23T18:35:43.503Z,33.10
2022-09-23T18:40:56.222Z,33.20
2022-09-23T18:46:02.899Z,33.30
2022-09-23T18:51:08.803Z,33.50
2022-09-23T18:56:14.662Z,34.20
2022-09-23T19:01:20.608Z,33.60
2022-09-23T19:06:24.502Z,33.60
2022-09-23T19:11:28.118Z,33.70
2022-09-23T19:16:32.905Z,33.80
2022-09-23T19:21:37.305Z,33.80
2022-09-23T19:26:41.836Z,34.10
2022-09-23T19:31:46.482Z,34.10
2022-09-23T19:36:49.792Z,34.10
2022-09-23T19:41:55.786Z,34.10
2022-09-23T19:47:00.494Z,34.10
2022-09-23T19:52:04.029Z,34.20
2022-09-23T19:57:07.231Z,34.10
2022-09-23T20:02:12.534Z,34.20
2022-09-23T20:07:16.306Z,34.30
2022-09-23T20:12:19.724Z,34.30
2022-09-23T20:17:24.326Z,34.40
2022-09-23T20:22:32.385Z,34.50
2022-09-23T20:27:36.615Z,34.60
2022-09-23T20:32:44.611Z,34.60
2022-09-23T20:37:48.227Z,34.70
2022-09-23T20:42:51.530Z,34.70
2022-09-23T20:47:59.814Z,34.90
2022-09-23T20:53:03.042Z,35.00
2022-09-23T20:58:06.246Z,35.30
2022-09-23T21:03:10.897Z,35.40
2022-09-23T21:08:14.112Z,35.80
2022-09-23T21:13:17.580Z,35.90
2022-09-23T21:18:24.375Z,36.10
2022-09-23T21:23:28.794Z,36.40
2022-09-23T21:28:33.130Z,36.40
2022-09-23T21:33:38.087Z,36.60
2022-09-23T21:38:41.395Z,36.90
2022-09-23T21:43:44.931Z,36.80
2022-09-23T21:48:53.408Z,37.00
2022-09-23T21:53:58.862Z,37.30
2022-09-23T21:59:02.227Z,37.30
2022-09-23T22:04:10.284Z,37.20
2022-09-23T22:09:15.703Z,37.40
2022-09-23T22:14:20.537Z,37.30
2022-09-23T22:19:26.856Z,37.40
2022-09-23T22:24:30.065Z,37.50
2022-09-23T22:29:50.836Z,37.50
2022-09-23T22:34:55.684Z,37.50
2022-09-23T22:39:58.949Z,37.60
2022-09-23T22:45:04.198Z,37.60
2022-09-23T22:50:10.341Z,37.70
2022-09-23T22:55:13.859Z,38.00
2022-09-23T23:00:17.098Z,37.90
2022-09-23T23:05:22.053Z,37.90
2022-09-23T23:10:27.297Z,38.10
2022-09-23T23:15:30.647Z,38.10
2022-09-23T23:20:35.445Z,38.20
2022-09-23T23:25:38.629Z,38.30
2022-09-23T23:30:41.902Z,38.30
2022-09-23T23:35:52.770Z,39.10
2022-09-23T23:40:56.496Z,39.00
2022-09-23T23:46:00.492Z,38.70
2022-09-23T23:51:07.531Z,38.70
2022-09-23T23:56:14.399Z,39.00
